createdAt,value
2022-12-19T03:45:17.852Z,93.38
2022-12-19T03:46:17.884Z,93.38
2022-12-19T03:47:17.844Z,93.59
2022-12-19T03:48:17.910Z,93.70
2022-12-19T03:49:17.731Z,93.59
2022-12-19T03:50:17.691Z,93.59
2022-12-19T03:51:17.700Z,93.38
2022-12-19T03:52:17.686Z,93.18
2022-12-19T03:53:17.680Z,93.24
2022-12-19T03:54:18.839Z,93.76
2022-12-19T03:55:18.872Z,93.70
2022-12-19T03:56:18.827Z,93.97
2022-12-19T03:57:18.867Z,93.13
2022-12-19T03:58:19.483Z,93.44
2022-12-19T03:59:18.811Z,93.24
2022-12-19T04:00:19.358Z,93.34
2022-12-19T04:01:18.972Z,93.34
2022-12-19T04:02:18.831Z,93.34
2022-12-19T04:03:18.828Z,92.88
2022-12-19T04:04:18.775Z,92.04
2022-12-19T04:05:18.896Z,91.72
2022-12-19T04:06:18.782Z,91.72
2022-12-19T04:07:18.937Z,91.94
2022-12-19T04:08:18.734Z,91.41
2022-12-19T04:09:22.396Z,91.30
2022-12-19T04:10:19.740Z,91.30
2022-12-19T04:11:18.691Z,90.89
2022-12-19T04:12:18.745Z,90.64
2022-12-19T04:13:18.722Z,90.78
2022-12-19T04:14:19.351Z,90.78
2022-12-19T04:15:18.680Z,90.84
2022-12-19T04:16:18.677Z,90.42
2022-12-19T04:17:18.649Z,90.64
2022-12-19T04:18:18.603Z,90.25
2022-12-19T04:19:18.640Z,90.53
2022-12-19T04:20:18.609Z,90.57
2022-12-19T04:21:18.670Z,90.64
2022-12-19T04:22:18.584Z,90.53
2022-12-19T04:23:18.659Z,90.64
2022-12-19T04:24:18.553Z,90.22
2022-12-19T04:25:18.543Z,90.11
2022-12-19T04:26:18.570Z,89.90
2022-12-19T04:27:18.533Z,90.11
2022-12-19T04:28:18.728Z,89.90
2022-12-19T04:29:18.533Z,89.69
2022-12-19T04:30:18.550Z,89.59
2022-12-19T04:31:18.513Z,89.34
2022-12-19T04:32:18.468Z,89.54
2022-12-19T04:33:18.615Z,89.34
2022-12-19T04:34:18.532Z,89.02
2022-12-19T04:35:18.537Z,89.65
2022-12-19T04:36:18.471Z,89.44
2022-12-19T04:37:18.454Z,89.12
2022-12-19T04:38:18.440Z,89.02
2022-12-19T04:39:18.433Z,89.02
2022-12-19T04:40:18.397Z,89.23
2022-12-19T04:41:18.409Z,89.17
2022-12-19T04:42:18.464Z,89.17
2022-12-19T04:43:18.449Z,90.15
2022-12-19T04:44:18.367Z,90.25
2022-12-19T04:45:18.375Z,90.32
2022-12-19T04:46:18.454Z,90.74
2022-12-19T04:47:18.351Z,90.80
2022-12-19T04:48:18.347Z,90.74
2022-12-19T04:49:18.480Z,90.64
2022-12-19T04:50:18.335Z,90.38
2022-12-19T04:51:18.308Z,90.28
2022-12-19T04:52:18.326Z,89.97
2022-12-19T04:53:18.352Z,89.86
2022-12-19T04:54:18.296Z,89.44
2022-12-19T04:55:18.286Z,89.86
2022-12-19T04:56:18.274Z,89.34
2022-12-19T04:57:18.279Z,89.54
2022-12-19T04:58:21.872Z,89.34
2022-12-19T04:59:19.265Z,89.44
2022-12-19T05:00:18.255Z,89.34
2022-12-19T05:01:18.964Z,90.07
2022-12-19T05:02:18.284Z,89.97
2022-12-19T05:03:18.510Z,89.86
2022-12-19T05:04:18.199Z,90.07
2022-12-19T05:05:18.242Z,89.75
2022-12-19T05:06:18.188Z,89.61
2022-12-19T05:07:18.192Z,89.72
2022-12-19T05:08:18.209Z,89.82
2022-12-19T05:09:18.166Z,89.50
2022-12-19T05:10:18.348Z,89.40
2022-12-19T05:11:19.855Z,89.61
2022-12-19T05:12:19.194Z,89.92
2022-12-19T05:13:18.173Z,89.82
2022-12-19T05:14:18.098Z,89.72
2022-12-19T05:15:18.268Z,89.40
2022-12-19T05:16:18.198Z,90.34
2022-12-19T05:17:18.218Z,90.55
2022-12-19T05:18:18.105Z,90.34
2022-12-19T05:19:18.067Z,90.76
2022-12-19T05:20:18.039Z,91.12
2022-12-19T05:21:18.141Z,91.50
2022-12-19T05:22:18.918Z,92.23
2022-12-19T05:23:18.085Z,92.13
2022-12-19T05:24:18.011Z,91.71
2022-12-19T05:25:18.009Z,91.60
2022-12-19T05:26:17.985Z,91.60
2022-12-19T05:27:18.030Z,91.60
2022-12-19T05:28:17.984Z,91.18
2022-12-19T05:29:18.186Z,91.28
2022-12-19T05:30:18.010Z,91.14
2022-12-19T05:31:18.920Z,91.24
2022-12-19T05:32:17.973Z,91.24
2022-12-19T05:33:17.921Z,91.14
2022-12-19T05:34:17.949Z,91.18
2022-12-19T05:35:17.926Z,90.93
2022-12-19T05:36:18.118Z,91.71
2022-12-19T05:37:17.915Z,91.35
2022-12-19T05:38:17.979Z,91.35
2022-12-19T05:39:17.872Z,91.35
2022-12-19T05:40:17.853Z,91.56
2022-12-19T05:41:17.900Z,91.14
2022-12-19T05:42:17.871Z,91.14
2022-12-19T05:43:17.857Z,91.20
2022-12-19T05:44:17.836Z,90.83
2022-12-19T05:45:17.943Z,91.24
2022-12-19T05:46:17.874Z,91.14
2022-12-19T05:47:17.822Z,91.35
2022-12-19T05:48:17.770Z,92.50
2022-12-19T05:49:17.813Z,93.02
2022-12-19T05:50:17.813Z,92.92
2022-12-19T05:51:17.755Z,93.07
2022-12-19T05:52:18.010Z,93.76
2022-12-19T05:53:20.673Z,92.92
2022-12-19T05:54:18.957Z,93.44
2022-12-19T05:55:17.760Z,93.38
2022-12-19T05:56:17.777Z,94.07
2022-12-19T05:57:17.722Z,94.28
2022-12-19T05:58:17.752Z,94.60
2022-12-19T05:59:17.919Z,94.60
2022-12-19T06:00:17.739Z,94.28
2022-12-19T06:01:17.740Z,94.18
2022-12-19T06:02:17.763Z,94.60
2022-12-19T06:03:18.073Z,94.18
2022-12-19T06:04:17.760Z,94.07
2022-12-19T06:05:17.666Z,94.28
2022-12-19T06:06:17.894Z,93.97
2022-12-19T06:07:20.864Z,94.07
2022-12-19T06:08:18.889Z,94.38
2022-12-19T06:09:17.751Z,94.49
2022-12-19T06:10:17.707Z,94.49
2022-12-19T06:11:17.678Z,94.07
2022-12-19T06:12:17.592Z,93.93
2022-12-19T06:13:22.097Z,93.65
2022-12-19T06:14:18.592Z,93.93
2022-12-19T06:15:17.617Z,94.34
2022-12-19T06:16:17.654Z,94.34
2022-12-19T06:17:17.560Z,94.13
2022-12-19T06:18:17.597Z,94.66
2022-12-19T06:19:17.592Z,94.76
2022-12-19T06:20:17.503Z,93.93
2022-12-19T06:21:17.523Z,93.51
2022-12-19T06:22:17.496Z,94.03
2022-12-19T06:23:17.638Z,94.56
2022-12-19T06:24:17.524Z,94.34
2022-12-19T06:25:18.187Z,94.45
2022-12-19T06:26:19.791Z,94.34
2022-12-19T06:27:19.567Z,94.20
2022-12-19T06:28:17.427Z,94.13
2022-12-19T06:29:17.445Z,93.93
2022-12-19T06:30:17.434Z,94.24
2022-12-19T06:31:17.488Z,94.34
2022-12-19T06:32:17.608Z,94.56
2022-12-19T06:33:17.402Z,94.66
2022-12-19T06:34:39.528Z,94.66
2022-12-19T06:35:19.484Z,94.03
2022-12-19T06:36:17.422Z,93.40
2022-12-19T06:37:17.488Z,92.98
2022-12-19T06:38:17.363Z,92.98
2022-12-19T06:39:17.553Z,93.08
2022-12-19T06:40:17.453Z,92.31
2022-12-19T06:41:17.469Z,93.36
2022-12-19T06:42:17.347Z,92.98
2022-12-19T06:43:17.336Z,93.19
2022-12-19T06:44:17.373Z,93.71
2022-12-19T06:45:17.275Z,93.40
2022-12-19T06:46:17.442Z,92.94
2022-12-19T06:47:17.360Z,93.19
2022-12-19T06:48:17.341Z,93.08
2022-12-19T06:49:17.266Z,92.46
2022-12-19T06:50:17.282Z,93.30
2022-12-19T06:51:17.184Z,92.57
2022-12-19T06:52:17.303Z,92.94
2022-12-19T06:53:17.197Z,93.19
2022-12-19T06:54:17.253Z,92.73
2022-12-19T06:55:17.359Z,92.63
2022-12-19T06:56:17.148Z,92.42
2022-12-19T06:57:17.293Z,92.35
2022-12-19T06:58:20.226Z,92.63
2022-12-19T06:59:18.131Z,92.73
2022-12-19T07:00:17.191Z,92.63
2022-12-19T07:01:17.250Z,93.15
2022-12-19T07:02:17.321Z,93.08
2022-12-19T07:03:17.107Z,93.19
2022-12-19T07:04:17.135Z,93.15
2022-12-19T07:05:17.091Z,93.19
2022-12-19T07:06:17.473Z,93.04
2022-12-19T07:07:17.115Z,92.94
2022-12-19T07:08:17.311Z,92.94
2022-12-19T07:09:17.215Z,93.19
2022-12-19T07:10:17.240Z,93.04
2022-12-19T07:11:17.138Z,92.94
2022-12-19T07:12:17.044Z,92.94
2022-12-19T07:13:17.059Z,93.36
2022-12-19T07:14:18.070Z,93.57
2022-12-19T07:15:17.018Z,92.94
2022-12-19T07:16:17.142Z,92.63
2022-12-19T07:17:17.028Z,93.26
2022-12-19T07:18:17.056Z,93.36
2022-12-19T07:19:16.987Z,92.94
2022-12-19T07:20:17.003Z,92.52
2022-12-19T07:21:16.950Z,93.15
2022-12-19T07:22:16.990Z,93.04
2022-12-19T07:23:16.952Z,93.15
2022-12-19T07:24:16.920Z,93.36
2022-12-19T07:25:16.963Z,93.67
2022-12-19T07:26:16.863Z,93.57
2022-12-19T07:27:16.836Z,94.09
2022-12-19T07:28:16.966Z,94.20
2022-12-19T07:29:16.891Z,94.51
2022-12-19T07:30:16.830Z,94.62
2022-12-19T07:31:16.871Z,94.30
2022-12-19T07:32:17.979Z,94.30
2022-12-19T07:33:21.247Z,94.72
2022-12-19T07:34:20.151Z,94.82
2022-12-19T07:35:19.259Z,94.93
2022-12-19T07:36:16.902Z,95.14
2022-12-19T07:37:17.520Z,94.89
2022-12-19T07:38:16.806Z,95.41
2022-12-19T07:39:17.393Z,94.93
2022-12-19T07:40:16.738Z,95.41
2022-12-19T07:41:17.362Z,94.89
2022-12-19T07:42:16.802Z,95.41
2022-12-19T07:43:17.274Z,95.20
2022-12-19T07:44:17.088Z,95.09
2022-12-19T07:58:53.754Z,95.41
2022-12-19T08:01:06.977Z,95.41
2022-12-19T08:06:10.642Z,94.89
2022-12-19T08:13:49.271Z,94.36
2022-12-19T08:18:26.972Z,94.53
2022-12-19T08:19:27.733Z,94.64
2022-12-19T08:20:26.849Z,94.17
2022-12-19T08:21:26.847Z,94.21
2022-12-19T08:22:26.840Z,94.11
2022-12-19T08:23:26.873Z,94.11
2022-12-19T08:24:28.087Z,94.11
2022-12-19T08:25:28.023Z,94.01
2022-12-19T08:26:31.233Z,94.21
2022-12-19T08:27:29.077Z,94.38
2022-12-19T08:28:28.137Z,94.21
2022-12-19T08:29:28.038Z,94.11
2022-12-19T08:30:27.939Z,94.11
2022-12-19T08:31:27.949Z,94.11
2022-12-19T08:32:27.944Z,94.21
2022-12-19T08:33:27.883Z,94.21
2022-12-19T08:34:28.965Z,94.59
2022-12-19T08:35:27.931Z,94.32
2022-12-19T08:36:27.857Z,93.54
2022-12-19T08:37:27.872Z,93.76
2022-12-19T08:38:27.906Z,94.59
2022-12-19T08:39:27.912Z,94.38
2022-12-19T08:40:27.823Z,94.07
2022-12-19T08:41:27.962Z,94.07
2022-12-19T08:42:27.824Z,94.07
2022-12-19T08:43:27.953Z,94.07
2022-12-19T08:44:27.818Z,94.07
2022-12-19T08:45:27.789Z,93.96
2022-12-19T08:46:27.928Z,94.17
2022-12-19T08:47:27.769Z,94.38
2022-12-19T08:48:27.757Z,94.07
2022-12-19T08:49:27.775Z,94.07
2022-12-19T08:50:27.863Z,93.96
2022-12-19T08:51:27.722Z,94.38
2022-12-19T08:52:27.921Z,94.27
2022-12-19T08:53:27.703Z,94.17
2022-12-19T08:54:27.742Z,94.27
2022-12-19T08:55:27.757Z,94.27
2022-12-19T08:56:27.666Z,94.27
2022-12-19T08:57:27.725Z,94.23
2022-12-19T08:58:27.648Z,94.44
2022-12-19T08:59:31.521Z,94.34
2022-12-19T09:00:27.680Z,94.38
2022-12-19T09:01:27.630Z,93.71
2022-12-19T09:02:28.741Z,93.50
2022-12-19T09:03:29.297Z,93.40
2022-12-19T09:05:57.367Z,92.88
2022-12-19T09:05:58.840Z,92.98
2022-12-19T09:06:28.695Z,92.82
2022-12-19T09:07:27.595Z,92.77
2022-12-19T09:08:27.561Z,92.98
2022-12-19T09:09:27.633Z,93.19
2022-12-19T09:10:27.562Z,93.33
2022-12-19T09:11:27.682Z,93.08
2022-12-19T09:12:27.519Z,93.08
2022-12-19T09:13:27.576Z,92.77
2022-12-19T09:14:27.522Z,92.77
2022-12-19T09:15:27.567Z,93.08
2022-12-19T09:16:27.600Z,92.77
2022-12-19T09:17:28.541Z,92.14
2022-12-19T09:18:28.062Z,93.19
2022-12-19T09:19:27.467Z,92.88
2022-12-19T09:20:27.735Z,92.66
2022-12-19T09:21:28.494Z,92.77
2022-12-19T09:22:27.797Z,92.31
2022-12-19T09:23:27.450Z,93.25
2022-12-19T09:24:27.450Z,93.15
2022-12-19T09:25:27.531Z,92.63
2022-12-19T09:26:27.424Z,92.83
2022-12-19T09:27:28.421Z,92.73
2022-12-19T09:28:28.224Z,92.52
2022-12-19T09:29:32.202Z,92.41
2022-12-19T09:30:29.361Z,92.21
2022-12-19T09:31:27.345Z,92.21
2022-12-19T09:32:27.485Z,92.21
2022-12-19T09:33:27.323Z,92.41
2022-12-19T09:34:36.735Z,92.37
2022-12-19T09:35:30.477Z,92.16
2022-12-19T09:36:28.287Z,91.58
2022-12-19T09:37:27.284Z,91.69
2022-12-19T09:38:27.399Z,92.21
2022-12-19T09:39:27.308Z,92.27
2022-12-19T09:40:27.233Z,91.96
2022-12-19T09:41:27.907Z,91.54
2022-12-19T09:42:27.252Z,92.47
2022-12-19T09:43:27.221Z,91.22
2022-12-19T09:44:27.252Z,91.85
2022-12-19T09:45:32.002Z,92.27
2022-12-19T09:46:29.117Z,92.06
2022-12-19T09:47:27.247Z,91.85
2022-12-19T09:48:27.176Z,91.54
2022-12-19T09:49:27.172Z,91.96
2022-12-19T09:50:27.133Z,91.75
2022-12-19T09:51:27.175Z,91.64
2022-12-19T09:52:29.840Z,91.96
2022-12-19T09:53:28.182Z,91.75
2022-12-19T09:54:27.179Z,91.75
2022-12-19T09:55:27.101Z,92.33
2022-12-19T09:56:27.107Z,92.06
2022-12-19T09:57:27.163Z,92.16
2022-12-19T09:58:27.063Z,91.75
2022-12-19T09:59:28.350Z,91.75
2022-12-19T10:00:29.270Z,92.12
2022-12-19T10:01:27.184Z,91.54
2022-12-19T10:02:27.361Z,91.96
2022-12-19T10:03:27.076Z,91.71
2022-12-19T10:04:27.183Z,91.64
2022-12-19T10:05:40.811Z,91.91
2022-12-19T10:07:12.619Z,91.64
2022-12-19T10:08:08.830Z,92.27
2022-12-19T10:08:28.240Z,92.02
2022-12-19T10:11:52.447Z,92.58
2022-12-19T10:12:35.952Z,92.47
2022-12-19T10:12:46.511Z,91.91
2022-12-19T10:12:47.473Z,91.81
2022-12-19T10:13:53.797Z,91.39
2022-12-19T10:15:00.703Z,91.85
2022-12-19T10:15:27.110Z,92.27
2022-12-19T10:16:27.802Z,92.12
2022-12-19T10:17:27.079Z,91.81
2022-12-19T10:18:59.596Z,91.29
2022-12-19T10:20:00.781Z,90.87
2022-12-19T10:20:27.247Z,90.97
2022-12-19T10:22:17.667Z,90.87
2022-12-19T10:22:59.437Z,90.87
2022-12-19T10:23:27.999Z,91.18
2022-12-19T10:25:08.240Z,91.39
2022-12-19T10:25:55.819Z,92.44
2022-12-19T10:26:59.407Z,92.44
2022-12-19T10:28:00.523Z,92.33
2022-12-19T10:28:59.282Z,91.81
2022-12-19T10:29:59.662Z,92.33
2022-12-19T10:30:27.925Z,92.22
2022-12-19T10:31:59.495Z,92.02
2022-12-19T10:32:59.381Z,92.12
2022-12-19T10:33:59.403Z,91.46
2022-12-19T10:35:00.263Z,91.25
2022-12-19T10:36:01.974Z,91.25
2022-12-19T10:40:06.658Z,90.62
2022-12-19T10:41:44.030Z,90.72
2022-12-19T10:42:07.977Z,91.04
2022-12-19T10:43:10.902Z,92.33
2022-12-19T10:44:07.787Z,91.60
2022-12-19T10:45:07.783Z,91.60
2022-12-19T10:46:07.867Z,91.60
2022-12-19T10:47:07.770Z,91.87
2022-12-19T10:48:07.810Z,92.22
2022-12-19T10:49:07.715Z,93.06
2022-12-19T10:50:09.902Z,92.02
2022-12-19T10:51:08.694Z,92.44
2022-12-19T10:52:07.711Z,92.54
2022-12-19T10:53:07.752Z,92.96
2022-12-19T10:54:07.645Z,92.02
2022-12-19T10:55:07.840Z,92.85
2022-12-19T10:56:07.681Z,92.22
2022-12-19T10:57:07.702Z,92.85
2022-12-19T10:58:07.780Z,92.54
2022-12-19T10:59:07.632Z,92.75
2022-12-19T11:00:07.690Z,92.65
2022-12-19T11:01:07.720Z,92.75
2022-12-19T11:02:11.620Z,92.02
2022-12-19T11:03:07.661Z,92.12
2022-12-19T11:04:07.672Z,92.75
2022-12-19T11:05:07.708Z,92.75
2022-12-19T11:06:07.574Z,93.06
2022-12-19T11:07:07.567Z,93.12
2022-12-19T11:08:07.560Z,92.75
2022-12-19T11:09:07.708Z,92.60
2022-12-19T11:11:19.323Z,92.29
2022-12-19T11:12:08.020Z,92.81
2022-12-19T11:17:48.494Z,92.50
2022-12-19T11:18:36.991Z,93.02
2022-12-19T11:18:49.348Z,93.02
2022-12-19T11:21:27.240Z,93.02
2022-12-19T11:21:30.559Z,92.60
2022-12-19T11:21:31.674Z,92.81
2022-12-19T11:23:39.141Z,92.60
2022-12-19T11:29:16.567Z,92.60
2022-12-19T11:29:38.159Z,92.50
2022-12-19T11:30:07.049Z,92.81
2022-12-19T11:30:46.766Z,92.50
2022-12-19T11:32:39.085Z,92.29
2022-12-19T11:34:36.920Z,91.97
2022-12-19T11:35:46.025Z,92.29
2022-12-19T11:36:44.814Z,91.83
2022-12-19T11:37:36.922Z,92.14
2022-12-19T11:38:36.889Z,91.41
2022-12-19T11:40:10.894Z,92.03
2022-12-19T11:41:12.816Z,91.41
2022-12-19T11:41:38.184Z,91.00
2022-12-19T11:43:43.084Z,91.10
2022-12-19T11:44:12.376Z,90.75
2022-12-19T11:45:10.497Z,90.64
2022-12-19T11:46:16.258Z,90.79
2022-12-19T11:46:39.156Z,90.33
2022-12-19T11:47:38.125Z,90.01
2022-12-19T11:48:38.089Z,90.12
2022-12-19T11:49:37.967Z,90.33
2022-12-19T11:50:37.979Z,90.22
2022-12-19T11:51:37.945Z,90.22
2022-12-19T11:53:03.560Z,90.33
2022-12-19T11:53:39.912Z,90.44
2022-12-19T11:54:37.959Z,90.33
2022-12-19T11:55:37.953Z,90.22
2022-12-19T11:56:37.899Z,90.33
2022-12-19T11:57:37.937Z,90.58
2022-12-19T11:59:10.370Z,90.33
2022-12-19T11:59:38.027Z,90.33
2022-12-19T12:00:38.297Z,90.26
2022-12-19T12:01:38.038Z,90.79
2022-12-19T12:02:37.953Z,90.75
2022-12-19T12:03:37.885Z,90.68
2022-12-19T12:04:37.865Z,91.00
2022-12-19T12:05:37.839Z,91.52
2022-12-19T12:06:38.073Z,91.41
2022-12-19T12:08:55.169Z,91.83
2022-12-19T12:09:24.538Z,92.03
2022-12-19T12:11:34.986Z,91.93
2022-12-19T12:14:38.880Z,92.18
2022-12-19T12:19:26.324Z,92.03
2022-12-19T12:21:22.196Z,92.25
2022-12-19T12:23:08.524Z,92.56
2022-12-19T12:26:19.560Z,92.46
2022-12-19T12:26:58.599Z,92.56
2022-12-19T12:27:46.443Z,92.66
2022-12-19T12:29:46.091Z,92.66
2022-12-19T12:31:01.331Z,92.60
2022-12-19T12:31:15.728Z,92.71
2022-12-19T12:31:17.059Z,91.83
2022-12-19T12:31:19.293Z,92.97
2022-12-19T12:31:31.686Z,91.93
2022-12-19T12:31:41.327Z,93.04
2022-12-19T12:31:41.876Z,93.24
2022-12-19T12:31:45.690Z,92.47
2022-12-19T12:31:54.262Z,92.52
2022-12-19T12:31:55.168Z,92.72
2022-12-19T12:32:04.210Z,91.58
2022-12-19T12:32:04.346Z,92.93
2022-12-19T12:32:04.830Z,92.72
2022-12-19T12:35:28.855Z,92.68
2022-12-19T12:35:28.857Z,93.10
2022-12-19T12:35:48.612Z,92.47
2022-12-19T12:38:13.555Z,92.54
2022-12-19T12:38:39.843Z,91.91
2022-12-19T12:39:37.516Z,91.91
2022-12-19T12:40:37.510Z,91.91
2022-12-19T12:41:37.489Z,92.22
2022-12-19T12:42:37.616Z,91.53
2022-12-19T12:43:37.451Z,91.43
2022-12-19T12:44:44.751Z,91.71
2022-12-19T12:45:39.455Z,92.02
2022-12-19T12:46:37.409Z,91.75
2022-12-19T12:47:37.501Z,91.50
2022-12-19T12:48:37.371Z,91.18
2022-12-19T12:49:40.427Z,91.71
2022-12-19T12:50:37.469Z,91.39
2022-12-19T12:51:37.992Z,90.87
2022-12-19T12:52:37.427Z,91.04
2022-12-19T12:53:37.334Z,90.97
2022-12-19T12:54:37.413Z,90.52
2022-12-19T12:55:37.392Z,90.83
2022-12-19T12:56:37.389Z,90.77
2022-12-19T12:57:37.328Z,90.87
2022-12-19T12:58:37.295Z,90.93
2022-12-19T12:59:37.291Z,90.97
2022-12-19T13:00:37.337Z,91.39
2022-12-19T13:01:37.413Z,90.97
2022-12-19T13:02:37.486Z,90.93
2022-12-19T13:03:37.359Z,90.72
2022-12-19T13:04:37.252Z,90.93
2022-12-19T13:05:37.237Z,91.18
2022-12-19T13:06:37.259Z,90.93
2022-12-19T13:07:38.177Z,91.14
2022-12-19T13:08:37.220Z,90.77
2022-12-19T13:09:37.234Z,90.97
2022-12-19T13:10:37.292Z,91.08
2022-12-19T13:11:37.302Z,91.25
2022-12-19T13:12:37.154Z,90.83
2022-12-19T13:13:37.230Z,90.97
2022-12-19T13:14:37.169Z,90.93
2022-12-19T13:15:37.159Z,90.72
2022-12-19T13:16:37.211Z,90.62
2022-12-19T13:17:37.245Z,90.47
2022-12-19T13:18:37.077Z,90.47
2022-12-19T13:19:37.102Z,90.52
2022-12-19T13:20:37.158Z,90.41
2022-12-19T13:21:37.069Z,90.52
2022-12-19T13:22:37.078Z,90.41
2022-12-19T13:23:37.049Z,90.52
2022-12-19T13:24:37.531Z,90.41
2022-12-19T13:25:37.174Z,90.93
2022-12-19T13:26:37.309Z,90.62
2022-12-19T13:27:37.382Z,90.52
2022-12-19T13:28:36.983Z,90.52
2022-12-19T13:29:37.116Z,90.72
2022-12-19T13:31:15.465Z,90.93
2022-12-19T13:31:38.045Z,91.04
2022-12-19T13:32:39.567Z,90.93
2022-12-19T13:33:37.901Z,90.83
2022-12-19T13:34:37.039Z,90.83
2022-12-19T13:36:49.303Z,91.28
2022-12-19T13:39:51.267Z,91.08
2022-12-19T13:39:51.267Z,91.28
2022-12-19T13:39:55.539Z,90.93
2022-12-19T13:39:57.596Z,91.08
2022-12-19T13:40:37.910Z,90.87
2022-12-19T13:41:36.926Z,90.93
2022-12-19T13:42:37.082Z,91.35
2022-12-19T13:43:36.926Z,91.35
2022-12-19T13:44:36.896Z,91.35
2022-12-19T13:45:36.948Z,91.14
2022-12-19T13:46:36.898Z,90.93
2022-12-19T13:47:36.885Z,91.04
2022-12-19T13:48:36.847Z,90.93
2022-12-19T13:49:36.825Z,90.93
2022-12-19T13:50:36.838Z,90.93
2022-12-19T13:51:36.809Z,90.93
2022-12-19T13:52:36.806Z,90.83
2022-12-19T13:53:36.789Z,90.83
2022-12-19T13:54:36.920Z,90.62
2022-12-19T13:55:36.755Z,90.69
2022-12-19T13:56:36.823Z,90.52
2022-12-19T13:57:36.736Z,90.72
2022-12-19T13:58:36.685Z,90.62
2022-12-19T13:59:36.799Z,90.62
2022-12-19T14:00:36.729Z,90.52
2022-12-19T14:01:36.855Z,90.52
2022-12-19T14:02:44.009Z,90.62
2022-12-19T14:03:38.155Z,90.62
2022-12-19T14:04:36.749Z,90.16
2022-12-19T14:06:15.752Z,90.20
2022-12-19T14:06:37.637Z,90.10
2022-12-19T14:07:36.996Z,90.41
2022-12-19T14:08:36.665Z,90.47
2022-12-19T14:11:26.874Z,90.52
2022-12-19T14:11:40.899Z,90.62
2022-12-19T14:13:39.795Z,90.31
2022-12-19T14:13:43.068Z,90.41
2022-12-19T14:13:52.968Z,91.04
2022-12-19T14:16:47.516Z,90.89
2022-12-19T14:17:48.296Z,90.93
2022-12-19T14:18:47.380Z,90.41
2022-12-19T14:19:47.383Z,90.93
2022-12-19T14:22:10.511Z,90.72
2022-12-19T14:22:11.162Z,90.93
2022-12-19T14:22:48.321Z,90.93
2022-12-19T14:23:47.318Z,91.04
2022-12-19T14:24:47.359Z,90.93
2022-12-19T14:28:20.292Z,90.93
2022-12-19T14:28:21.198Z,91.14
2022-12-19T14:28:26.430Z,90.97
2022-12-19T14:28:54.801Z,91.35
2022-12-19T14:30:27.276Z,91.56
2022-12-19T14:30:50.294Z,91.35
2022-12-19T14:32:33.237Z,91.56
2022-12-19T14:33:44.255Z,91.56
2022-12-19T14:34:11.168Z,90.89
2022-12-19T14:36:06.232Z,90.93
2022-12-19T14:36:07.516Z,90.72
2022-12-19T14:36:49.410Z,90.83
2022-12-19T14:39:22.712Z,90.89
2022-12-19T14:39:22.831Z,90.47
2022-12-19T14:39:49.593Z,90.79
2022-12-19T14:41:08.820Z,90.89
2022-12-19T14:41:49.278Z,90.69
2022-12-19T14:43:56.378Z,90.89
2022-12-19T14:43:58.694Z,91.10
2022-12-19T14:52:35.648Z,90.89
2022-12-19T14:53:52.384Z,90.89
2022-12-19T14:54:03.374Z,90.89
2022-12-19T14:54:03.655Z,90.75
2022-12-19T14:54:11.219Z,90.69
2022-12-19T14:54:14.411Z,90.79
2022-12-19T14:54:22.083Z,90.79
2022-12-19T14:54:23.270Z,90.69
2022-12-19T14:54:31.208Z,90.69
2022-12-19T14:54:42.088Z,91.00
2022-12-19T14:56:00.427Z,90.69
2022-12-19T14:56:12.935Z,90.58
2022-12-19T14:57:00.387Z,91.00
2022-12-19T14:58:53.746Z,90.06
2022-12-19T14:58:54.201Z,90.75
2022-12-19T14:59:49.180Z,90.47
2022-12-19T15:01:07.576Z,90.47
2022-12-19T15:01:50.664Z,90.58
2022-12-19T15:02:48.514Z,90.69
2022-12-19T15:04:47.239Z,90.79
2022-12-19T15:04:54.964Z,90.79
2022-12-19T15:05:48.137Z,90.93
2022-12-19T15:07:09.922Z,90.93
2022-12-19T15:07:51.332Z,91.31
2022-12-19T15:09:50.713Z,91.56
2022-12-19T15:11:00.975Z,91.62
2022-12-19T15:11:09.506Z,91.31
2022-12-19T15:12:05.870Z,91.31
2022-12-19T15:14:47.389Z,91.72
2022-12-19T15:14:51.167Z,91.52
2022-12-19T15:14:59.179Z,91.62
2022-12-19T15:15:50.222Z,91.06
2022-12-19T15:16:48.240Z,91.31
2022-12-19T15:17:48.071Z,91.10
2022-12-19T15:18:48.061Z,90.85
2022-12-19T15:19:48.219Z,91.10
2022-12-19T15:20:48.028Z,91.16
2022-12-19T15:21:48.040Z,90.69
2022-12-19T15:22:48.019Z,90.79
2022-12-19T15:23:47.966Z,91.41
2022-12-19T15:24:48.255Z,90.79
2022-12-19T15:26:56.648Z,90.37
2022-12-19T15:27:49.238Z,90.06
2022-12-19T15:28:48.100Z,89.85
2022-12-19T15:29:47.933Z,89.75
2022-12-19T15:30:47.925Z,89.58
2022-12-19T15:31:49.141Z,89.69
2022-12-19T15:32:48.369Z,90.20
2022-12-19T15:34:14.856Z,90.66
2022-12-19T15:34:51.747Z,90.72
2022-12-19T15:35:48.894Z,90.41
2022-12-19T15:36:48.021Z,90.00
2022-12-19T15:37:47.832Z,89.69
2022-12-19T15:38:47.887Z,89.52
2022-12-19T15:39:47.889Z,89.52
2022-12-19T15:40:47.764Z,89.94
2022-12-19T15:41:47.779Z,90.04
2022-12-19T15:42:47.772Z,90.04
2022-12-19T15:44:04.922Z,90.35
2022-12-19T15:44:50.125Z,90.19
2022-12-19T15:45:47.957Z,90.70
2022-12-19T15:46:49.239Z,91.12
2022-12-19T15:47:48.763Z,90.91
2022-12-19T15:48:47.804Z,91.75
2022-12-19T15:49:48.655Z,91.33
2022-12-19T15:50:48.498Z,91.02
2022-12-19T15:51:47.828Z,91.22
2022-12-19T15:52:47.692Z,91.53
2022-12-19T15:53:47.745Z,91.64
2022-12-19T15:54:50.178Z,91.43
2022-12-19T15:55:47.900Z,91.43
2022-12-19T15:56:49.946Z,91.53
2022-12-19T15:57:47.813Z,92.37
2022-12-19T15:58:49.307Z,92.68
2022-12-19T15:59:48.374Z,92.16
2022-12-19T16:00:48.146Z,92.31
2022-12-19T16:01:47.826Z,92.68
2022-12-19T16:03:50.365Z,92.72
2022-12-19T16:04:47.790Z,92.06
2022-12-19T16:05:48.178Z,91.85
2022-12-19T16:06:54.878Z,92.06
2022-12-19T16:07:49.400Z,91.27
2022-12-19T16:08:47.674Z,91.43
2022-12-19T16:09:48.387Z,91.53
2022-12-19T16:10:49.902Z,91.12
2022-12-19T16:12:15.274Z,91.02
2022-12-19T16:13:10.712Z,92.27
2022-12-19T16:13:49.074Z,92.89
2022-12-19T16:14:49.681Z,92.58
2022-12-19T16:15:49.725Z,92.99
2022-12-19T16:16:50.045Z,92.93
2022-12-19T16:17:48.283Z,92.72
2022-12-19T16:18:47.488Z,92.00
2022-12-19T16:19:49.396Z,92.68
2022-12-19T16:21:06.735Z,92.72
2022-12-19T16:21:50.404Z,93.04
2022-12-19T16:22:49.415Z,93.77
2022-12-19T16:23:47.436Z,93.62
2022-12-19T16:24:47.365Z,93.77
2022-12-19T16:25:47.511Z,93.10
2022-12-19T16:26:47.478Z,93.14
2022-12-19T16:27:47.962Z,92.89
2022-12-19T16:28:48.093Z,93.14
2022-12-19T16:29:47.443Z,92.72
2022-12-19T16:30:48.032Z,93.10
2022-12-19T16:31:47.385Z,93.24
2022-12-19T16:32:49.084Z,93.93
2022-12-19T16:33:47.305Z,94.81
2022-12-19T16:34:47.315Z,94.70
2022-12-19T16:36:04.240Z,94.39
2022-12-19T16:36:49.247Z,94.04
2022-12-19T16:37:47.496Z,94.39
2022-12-19T16:38:48.243Z,93.77
2022-12-19T16:39:47.225Z,93.77
2022-12-19T16:40:47.801Z,93.87
2022-12-19T16:41:47.298Z,94.18
2022-12-19T16:42:52.089Z,94.08
2022-12-19T16:43:48.192Z,94.18
2022-12-19T16:44:47.351Z,93.77
2022-12-19T16:45:47.203Z,93.87
2022-12-19T16:46:51.007Z,93.98
2022-12-19T16:47:48.287Z,93.66
2022-12-19T16:48:47.758Z,93.91
2022-12-19T16:49:47.350Z,94.64
2022-12-19T16:50:48.315Z,94.60
2022-12-19T16:51:47.150Z,94.08
2022-12-19T16:52:48.427Z,94.02
2022-12-19T16:53:47.228Z,94.43
2022-12-19T16:54:47.162Z,94.39
2022-12-19T16:55:47.113Z,93.91
2022-12-19T16:56:47.351Z,93.71
2022-12-19T16:57:47.391Z,93.66
2022-12-19T16:58:47.632Z,94.02
2022-12-19T16:59:47.112Z,94.23
2022-12-19T17:00:47.118Z,93.91
2022-12-19T17:01:47.233Z,94.02
2022-12-19T17:02:47.259Z,94.02
2022-12-19T17:03:47.008Z,94.08
2022-12-19T17:04:53.754Z,93.91
2022-12-19T17:05:49.856Z,94.12
2022-12-19T17:06:47.182Z,93.81
2022-12-19T17:07:47.260Z,93.98
2022-12-19T17:08:48.099Z,93.87
2022-12-19T17:09:47.810Z,94.29
2022-12-19T17:10:47.112Z,93.87
2022-12-19T17:11:46.945Z,94.60
2022-12-19T17:12:47.024Z,93.87
2022-12-19T17:13:46.985Z,93.87
2022-12-19T17:14:46.963Z,94.08
2022-12-19T17:15:52.638Z,94.70
2022-12-19T17:16:49.067Z,94.29
2022-12-19T17:17:47.302Z,94.49
2022-12-19T17:18:47.368Z,94.49
2022-12-19T17:19:47.344Z,94.49
2022-12-19T17:20:46.957Z,94.29
2022-12-19T17:21:46.886Z,94.39
2022-12-19T17:22:46.944Z,93.87
2022-12-19T17:23:47.195Z,94.08
2022-12-19T17:24:47.111Z,94.49
2022-12-19T17:25:47.701Z,94.39
2022-12-19T17:26:46.824Z,94.08
2022-12-19T17:27:47.694Z,93.87